Naxos, Greece
Current Conditions -  °F | °C
As of 11:20 AM on Sunday 26 Oct 2014 (Local Time) from LGMK Reporting Station
Broken Clouds Broken Clouds  
Wind Chill: 64°   Ceiling: 18000
Heat Index: 64°   Visibility: 6mi
Dew Point: 55°   Wind: 12mph
Humidity: 73%   Direction: 360°N
Pressure: 29.97"   Gusts: NA
Location:  37.11°N, 25.38°E
Report Text: LGMK 260820Z 36010KT 9999 SCT008 FEW016TCU SCT090 BKN180 18/13 Q1015
Loading
Personal Weather Stations






























Interactive Weather Map
Tropical Storm Tracking
New forecast layout! Learn more

10-Day Weather Forecast

Advertisements
Track Severe Weather on mobile